createdAt,value
2018-03-26T00:00:24.589Z,17.00
2018-03-26T00:02:53.613Z,18.37
2018-03-26T00:05:21.849Z,16.30
2018-03-26T00:07:50.101Z,19.10
2018-03-26T00:10:18.347Z,16.87
2018-03-26T00:12:46.718Z,16.13
2018-03-26T00:15:14.954Z,17.17
2018-03-26T00:17:43.200Z,17.50
2018-03-26T00:20:11.454Z,18.23
2018-03-26T00:22:39.693Z,17.90
2018-03-26T00:25:08.709Z,16.50
2018-03-26T00:27:36.965Z,18.47
2018-03-26T00:30:05.974Z,17.57
2018-03-26T00:32:34.213Z,18.87
2018-03-26T00:35:02.470Z,19.77
2018-03-26T00:37:30.713Z,19.10
2018-03-26T00:39:58.960Z,18.20
2018-03-26T00:42:27.970Z,17.73
2018-03-26T00:44:56.218Z,19.00
2018-03-26T00:47:25.232Z,18.40
2018-03-26T00:49:53.481Z,17.97
2018-03-26T00:52:21.720Z,18.00
2018-03-26T00:54:49.979Z,17.77
2018-03-26T00:57:18.222Z,18.97
2018-03-26T00:59:47.236Z,19.03
2018-03-26T01:02:15.485Z,19.53
2018-03-26T01:04:44.494Z,18.83
2018-03-26T01:07:12.747Z,18.90
2018-03-26T01:09:41.748Z,16.57
2018-03-26T01:12:10.770Z,19.60
2018-03-26T01:14:39.018Z,19.40
2018-03-26T01:17:08.022Z,19.47
2018-03-26T01:19:36.265Z,18.50
2018-03-26T01:22:04.518Z,18.13
2018-03-26T01:24:32.757Z,19.50
2018-03-26T01:27:01.018Z,17.97
2018-03-26T01:29:30.027Z,17.20
2018-03-26T01:31:58.281Z,20.13
2018-03-26T01:34:27.280Z,19.50
2018-03-26T01:36:55.537Z,18.50
2018-03-26T01:39:24.549Z,18.50
2018-03-26T01:41:53.587Z,17.93
2018-03-26T01:44:21.834Z,18.90
2018-03-26T01:46:50.087Z,20.50
2018-03-26T01:49:19.104Z,18.50
2018-03-26T01:51:47.345Z,20.70
2018-03-26T01:54:16.360Z,18.60
2018-03-26T01:56:44.602Z,20.10
2018-03-26T01:59:13.623Z,19.13
2018-03-26T02:01:42.622Z,20.53
2018-03-26T02:04:10.873Z,19.73
2018-03-26T02:06:39.886Z,21.43
2018-03-26T02:09:08.897Z,21.90
2018-03-26T02:11:37.144Z,23.33
2018-03-26T02:14:06.157Z,22.97
2018-03-26T02:16:34.398Z,22.90
2018-03-26T02:19:02.650Z,23.90
2018-03-26T02:21:30.894Z,22.33
2018-03-26T02:23:59.141Z,26.60
2018-03-26T02:26:28.146Z,26.60
2018-03-26T02:28:56.393Z,24.10
2018-03-26T02:31:24.640Z,24.03
2018-03-26T02:33:52.885Z,28.07
2018-03-26T02:36:21.131Z,27.53
2018-03-26T02:38:49.402Z,25.60
2018-03-26T02:41:18.414Z,22.73
2018-03-26T02:43:47.428Z,25.83
2018-03-26T02:46:15.685Z,24.20
2018-03-26T02:48:43.928Z,24.30
2018-03-26T02:51:12.178Z,23.67
2018-03-26T02:53:40.419Z,25.20
2018-03-26T02:56:08.667Z,22.50
2018-03-26T02:58:37.677Z,24.70
2018-03-26T03:01:05.926Z,24.83
2018-03-26T03:03:34.174Z,23.87
2018-03-26T03:06:02.442Z,25.87
2018-03-26T03:08:30.678Z,26.93
2018-03-26T03:10:58.929Z,25.83
2018-03-26T03:13:27.941Z,26.13
2018-03-26T03:15:56.962Z,26.57
2018-03-26T03:18:25.209Z,25.63
2018-03-26T03:20:54.220Z,26.17
2018-03-26T03:23:22.466Z,27.60
2018-03-26T03:25:51.481Z,24.53
2018-03-26T03:28:19.726Z,22.10
2018-03-26T03:30:47.986Z,24.87
2018-03-26T03:33:16.225Z,23.33
2018-03-26T03:35:44.477Z,22.47
2018-03-26T03:38:13.477Z,20.83
2018-03-26T03:40:41.725Z,22.57
2018-03-26T03:43:10.739Z,22.27
2018-03-26T03:45:38.982Z,22.37
2018-03-26T03:48:08.013Z,23.10
2018-03-26T03:50:36.265Z,21.37
2018-03-26T03:53:05.276Z,21.50
2018-03-26T03:55:33.519Z,21.07
2018-03-26T03:58:01.773Z,21.00
2018-03-26T04:00:30.014Z,21.67
2018-03-26T04:02:58.269Z,21.67
2018-03-26T04:05:27.272Z,20.80
2018-03-26T04:07:55.545Z,21.27
2018-03-26T04:10:24.546Z,21.53
2018-03-26T04:12:52.802Z,22.27
2018-03-26T04:15:21.801Z,19.67
2018-03-26T04:17:50.121Z,22.40
2018-03-26T04:20:19.074Z,21.87
2018-03-26T04:22:48.093Z,21.60
2018-03-26T04:25:16.343Z,21.33
2018-03-26T04:27:44.585Z,23.50
2018-03-26T04:30:12.838Z,20.33
2018-03-26T04:32:41.074Z,21.97
2018-03-26T04:35:09.328Z,22.57
2018-03-26T04:37:38.450Z,22.47
2018-03-26T04:40:06.706Z,22.27
2018-03-26T04:42:34.953Z,23.33
2018-03-26T04:45:03.208Z,23.87
2018-03-26T04:47:31.454Z,23.03
2018-03-26T04:49:59.709Z,23.80
2018-03-26T04:52:28.718Z,22.10
2018-03-26T04:54:56.966Z,22.63
2018-03-26T04:57:25.970Z,23.50
2018-03-26T04:59:54.990Z,23.60
2018-03-26T05:02:23.235Z,25.63
2018-03-26T05:04:52.245Z,23.80
2018-03-26T05:07:20.485Z,28.13
2018-03-26T05:09:48.729Z,26.03
2018-03-26T05:12:16.969Z,28.17
2018-03-26T05:14:45.221Z,28.33
2018-03-26T05:17:14.230Z,31.40
2018-03-26T05:19:43.246Z,30.70
2018-03-26T05:22:11.488Z,26.83
2018-03-26T05:24:40.517Z,27.20
2018-03-26T05:27:08.762Z,26.53
2018-03-26T05:29:37.778Z,26.90
2018-03-26T05:32:06.022Z,30.10
2018-03-26T05:34:35.055Z,23.80
2018-03-26T05:37:03.294Z,28.80
2018-03-26T05:39:32.303Z,24.33
2018-03-26T05:42:00.557Z,27.27
2018-03-26T05:44:29.562Z,28.50
2018-03-26T05:46:58.582Z,27.40
2018-03-26T05:49:26.822Z,28.37
2018-03-26T05:51:55.842Z,27.60
2018-03-26T05:54:24.083Z,24.83
2018-03-26T05:56:52.334Z,26.23
2018-03-26T05:59:20.581Z,27.93
2018-03-26T06:01:48.827Z,27.03
2018-03-26T06:04:17.842Z,25.87
2018-03-26T06:06:46.100Z,27.40
2018-03-26T06:09:14.341Z,26.70
2018-03-26T06:11:42.629Z,25.27
2018-03-26T06:14:11.646Z,25.60
2018-03-26T06:17:17.654Z,26.30
2018-03-26T06:19:45.894Z,30.20
2018-03-26T06:22:14.145Z,25.37
2018-03-26T06:24:43.162Z,28.47
2018-03-26T06:27:11.416Z,30.43
2018-03-26T06:29:40.412Z,27.07
2018-03-26T06:32:08.673Z,28.27
2018-03-26T06:34:37.687Z,29.47
2018-03-26T06:40:08.029Z,28.17
2018-03-26T06:42:36.286Z,27.20
2018-03-26T06:45:05.289Z,30.90
2018-03-26T06:47:34.310Z,31.67
2018-03-26T06:50:02.550Z,30.43
2018-03-26T06:52:31.570Z,31.33
2018-03-26T06:54:59.815Z,28.60
2018-03-26T06:57:28.839Z,29.93
2018-03-26T06:59:57.081Z,29.53
2018-03-26T07:02:26.101Z,30.60
2018-03-26T07:04:54.349Z,30.27
2018-03-26T07:07:23.371Z,32.10
2018-03-26T07:09:51.627Z,31.13
2018-03-26T07:12:20.706Z,32.90
2018-03-26T07:14:49.713Z,30.50
2018-03-26T07:17:18.714Z,32.30
2018-03-26T07:19:47.729Z,31.67
2018-03-26T07:22:15.973Z,28.43
2018-03-26T07:24:44.990Z,29.63
2018-03-26T07:27:13.233Z,32.10
2018-03-26T07:29:41.486Z,30.60
2018-03-26T07:32:09.730Z,29.43
2018-03-26T07:34:37.982Z,27.10
2018-03-26T07:37:06.217Z,30.43
2018-03-26T07:39:34.471Z,29.10
2018-03-26T07:42:02.705Z,30.57
2018-03-26T07:44:30.962Z,29.33
2018-03-26T07:46:59.978Z,29.00
2018-03-26T07:49:28.234Z,30.70
2018-03-26T07:51:57.273Z,30.90
2018-03-26T07:54:26.259Z,31.33
2018-03-26T07:56:54.504Z,29.43
2018-03-26T07:59:23.526Z,30.40
2018-03-26T08:01:51.761Z,33.67
2018-03-26T08:04:20.774Z,31.43
2018-03-26T08:06:49.018Z,32.13
2018-03-26T08:09:17.289Z,30.03
2018-03-26T08:11:45.533Z,31.60
2018-03-26T08:14:13.777Z,31.07
2018-03-26T08:16:42.053Z,31.03
2018-03-26T08:19:11.047Z,34.03
2018-03-26T08:21:39.297Z,31.87
2018-03-26T08:24:07.544Z,32.70
2018-03-26T08:26:35.794Z,28.87
2018-03-26T08:29:04.030Z,32.90
2018-03-26T08:31:32.288Z,30.60
2018-03-26T08:34:00.530Z,32.20
2018-03-26T08:36:28.786Z,31.60
2018-03-26T08:38:57.026Z,31.87
2018-03-26T08:41:26.095Z,32.97
2018-03-26T08:43:54.287Z,33.00
2018-03-26T08:46:22.537Z,33.90
2018-03-26T08:48:50.781Z,31.67
2018-03-26T08:51:19.033Z,31.90
2018-03-26T08:53:48.040Z,33.27
2018-03-26T08:56:16.343Z,30.57
2018-03-26T08:58:44.546Z,30.70
2018-03-26T09:01:12.799Z,33.97
2018-03-26T09:03:41.908Z,31.03
2018-03-26T09:06:10.174Z,32.30
2018-03-26T09:08:38.414Z,33.37
2018-03-26T09:11:06.653Z,29.50
2018-03-26T09:13:34.912Z,29.00
2018-03-26T09:16:04.658Z,31.20
2018-03-26T09:18:33.674Z,30.07
2018-03-26T09:21:01.933Z,30.70
2018-03-26T09:23:30.937Z,29.93
2018-03-26T09:25:59.194Z,30.20
2018-03-26T09:28:28.196Z,31.20
2018-03-26T09:30:56.441Z,34.13
2018-03-26T09:33:24.691Z,28.10
2018-03-26T09:35:52.938Z,30.53
2018-03-26T09:38:21.207Z,31.07
2018-03-26T09:40:50.198Z,35.20
2018-03-26T09:43:18.470Z,31.40
2018-03-26T09:45:47.480Z,31.03
2018-03-26T09:48:15.737Z,30.00
2018-03-26T09:50:44.743Z,32.87
2018-03-26T09:53:13.051Z,30.20
2018-03-26T09:55:41.257Z,29.27
2018-03-26T09:58:09.509Z,30.90
2018-03-26T10:00:43.198Z,30.03
2018-03-26T10:03:11.446Z,30.97
2018-03-26T10:05:39.689Z,32.03
2018-03-26T10:08:08.710Z,29.77
2018-03-26T10:10:36.953Z,32.97
2018-03-26T10:13:05.201Z,29.90
2018-03-26T10:15:33.454Z,30.67
2018-03-26T10:18:01.714Z,28.10
2018-03-26T10:20:29.950Z,28.63
2018-03-26T10:22:58.220Z,31.47
2018-03-26T10:25:26.454Z,29.80
2018-03-26T10:27:54.724Z,30.07
2018-03-26T10:30:22.968Z,29.10
2018-03-26T10:32:51.973Z,29.10
2018-03-26T10:35:20.230Z,28.77
2018-03-26T10:37:48.464Z,29.80
2018-03-26T10:40:16.718Z,29.83
2018-03-26T10:42:44.963Z,27.97
2018-03-26T10:45:13.981Z,26.20
2018-03-26T10:47:42.227Z,28.17
2018-03-26T10:50:10.481Z,26.53
2018-03-26T10:52:38.734Z,29.63
2018-03-26T10:55:06.980Z,27.80
2018-03-26T10:57:35.224Z,29.63
2018-03-26T11:00:04.246Z,28.27
2018-03-26T11:02:32.490Z,27.97
2018-03-26T11:05:00.737Z,24.80
2018-03-26T11:07:28.997Z,25.60
2018-03-26T11:09:57.245Z,27.60
2018-03-26T11:12:25.498Z,26.83
2018-03-26T11:14:54.506Z,27.23
2018-03-26T11:17:23.525Z,26.47
2018-03-26T11:19:51.767Z,25.77
2018-03-26T11:22:20.782Z,24.17
2018-03-26T11:24:49.026Z,28.43
2018-03-26T11:27:18.045Z,26.50
2018-03-26T11:29:46.294Z,26.13
2018-03-26T11:32:14.551Z,25.63
2018-03-26T11:34:42.795Z,23.87
2018-03-26T11:37:11.039Z,24.27
2018-03-26T11:39:39.290Z,22.00
2018-03-26T11:42:07.534Z,24.57
2018-03-26T11:44:35.780Z,24.80
2018-03-26T11:47:04.028Z,24.10
2018-03-26T11:49:33.080Z,24.50
2018-03-26T11:52:01.308Z,24.67
2018-03-26T11:54:30.314Z,24.23
2018-03-26T11:56:58.557Z,24.97
2018-03-26T11:59:27.585Z,23.70
2018-03-26T12:01:55.831Z,24.13
2018-03-26T12:04:24.845Z,23.47
2018-03-26T12:06:53.086Z,26.40
2018-03-26T12:09:21.338Z,22.43
2018-03-26T12:11:49.591Z,26.93
2018-03-26T12:14:17.840Z,23.50
2018-03-26T12:16:46.086Z,24.20
2018-03-26T12:19:14.343Z,25.67
2018-03-26T12:21:42.583Z,28.87
2018-03-26T12:24:28.729Z,27.83
2018-03-26T12:26:56.981Z,26.97
2018-03-26T12:29:42.863Z,26.73
2018-03-26T12:32:11.107Z,27.30
2018-03-26T12:34:57.045Z,24.57
2018-03-26T12:37:25.288Z,25.57
2018-03-26T12:39:53.581Z,28.70
2018-03-26T12:42:22.541Z,29.50
2018-03-26T12:45:08.566Z,28.30
2018-03-26T12:47:36.810Z,27.27
2018-03-26T12:50:05.053Z,28.50
2018-03-26T12:52:56.889Z,30.23
2018-03-26T12:55:25.912Z,29.07
2018-03-26T12:58:11.945Z,29.00
2018-03-26T13:00:40.199Z,28.97
2018-03-26T13:03:08.443Z,27.87
2018-03-26T13:05:36.702Z,27.03
2018-03-26T13:08:05.728Z,27.60
2018-03-26T13:10:33.981Z,29.10
2018-03-26T13:13:02.224Z,32.00
2018-03-26T13:15:30.513Z,29.27
2018-03-26T13:17:58.763Z,25.80
2018-03-26T13:20:27.014Z,31.33
2018-03-26T13:22:55.258Z,32.70
2018-03-26T13:25:23.515Z,29.70
2018-03-26T13:27:53.062Z,27.30
2018-03-26T13:30:21.327Z,31.90
2018-03-26T13:32:49.575Z,28.23
2018-03-26T13:35:18.587Z,31.00
2018-03-26T13:37:46.846Z,29.17
2018-03-26T13:40:15.991Z,29.30
2018-03-26T13:42:44.275Z,30.90
2018-03-26T13:45:12.531Z,29.60
2018-03-26T13:47:40.784Z,25.97
2018-03-26T13:50:09.810Z,28.20
2018-03-26T13:52:38.037Z,28.80
2018-03-26T13:55:07.048Z,30.27
2018-03-26T13:57:35.299Z,30.07
2018-03-26T14:00:03.555Z,29.63
2018-03-26T14:02:31.814Z,30.00
2018-03-26T14:05:00.054Z,26.73
2018-03-26T14:07:28.317Z,28.87
2018-03-26T14:10:14.993Z,28.27
2018-03-26T14:13:01.209Z,31.80
2018-03-26T14:15:48.020Z,27.87
2018-03-26T14:18:17.039Z,28.30
2018-03-26T14:20:45.285Z,30.03
2018-03-26T14:23:14.302Z,29.97
2018-03-26T14:25:42.551Z,27.07
2018-03-26T14:28:10.797Z,29.77
2018-03-26T14:30:39.044Z,27.97
2018-03-26T14:33:07.294Z,29.40
2018-03-26T14:35:43.573Z,30.87
2018-03-26T14:38:11.825Z,29.60
2018-03-26T14:40:41.250Z,27.60
2018-03-26T14:43:09.540Z,27.90
2018-03-26T14:45:38.746Z,28.00
2018-03-26T14:48:06.989Z,27.40
2018-03-26T14:50:35.241Z,30.30
2018-03-26T14:53:04.259Z,30.20
2018-03-26T14:55:32.528Z,29.90
2018-03-26T14:58:01.537Z,30.23
2018-03-26T15:00:29.788Z,29.93
2018-03-26T15:02:59.313Z,27.17
2018-03-26T15:05:27.570Z,28.97
2018-03-26T15:07:56.578Z,28.90
2018-03-26T15:10:24.837Z,27.60
2018-03-26T15:12:53.846Z,27.27
2018-03-26T15:15:22.095Z,31.20
2018-03-26T15:17:50.338Z,26.57
2018-03-26T15:20:18.610Z,26.47
2018-03-26T15:22:46.824Z,29.03
2018-03-26T15:25:15.845Z,27.60
2018-03-26T15:27:44.093Z,28.20
2018-03-26T15:30:13.105Z,25.40
2018-03-26T15:32:41.361Z,28.27
2018-03-26T15:35:09.597Z,28.03
2018-03-26T15:37:37.853Z,25.77
2018-03-26T15:40:06.095Z,26.63
2018-03-26T15:42:35.106Z,27.93
2018-03-26T15:45:03.352Z,26.17
2018-03-26T15:47:31.604Z,27.67
2018-03-26T15:49:59.860Z,27.20
2018-03-26T15:52:28.109Z,25.63
2018-03-26T15:54:56.357Z,24.40
2018-03-26T15:57:24.615Z,28.53
2018-03-26T15:59:52.859Z,27.03
2018-03-26T16:02:21.109Z,26.23
2018-03-26T16:04:49.358Z,25.73
2018-03-26T16:07:17.609Z,24.90
2018-03-26T16:09:45.852Z,24.90
2018-03-26T16:12:14.105Z,24.60
2018-03-26T16:14:41.702Z,25.73
2018-03-26T16:17:09.959Z,24.97
2018-03-26T16:19:38.199Z,26.90
2018-03-26T16:22:07.218Z,26.13
2018-03-26T16:24:35.460Z,25.07
2018-03-26T16:27:04.486Z,26.00
2018-03-26T16:29:32.748Z,25.03
2018-03-26T16:32:01.764Z,24.80
2018-03-26T16:34:30.011Z,24.97
2018-03-26T16:36:59.017Z,25.73
2018-03-26T16:39:27.300Z,25.57
2018-03-26T16:45:02.856Z,26.13
2018-03-26T16:47:31.093Z,25.43
2018-03-26T16:49:59.349Z,26.00
2018-03-26T16:52:27.598Z,26.17
2018-03-26T16:54:55.842Z,23.50
2018-03-26T16:57:24.098Z,24.10
2018-03-26T16:59:52.334Z,24.60
2018-03-26T17:02:20.582Z,27.53
2018-03-26T17:04:48.834Z,23.63
2018-03-26T17:07:17.078Z,21.47
2018-03-26T17:09:45.322Z,23.27
2018-03-26T17:12:13.567Z,23.10
2018-03-26T17:14:42.588Z,23.57
2018-03-26T17:17:10.833Z,23.47
2018-03-26T17:19:39.849Z,22.20
2018-03-26T17:22:08.101Z,22.13
2018-03-26T17:24:36.430Z,21.07
2018-03-26T17:27:04.673Z,20.37
2018-03-26T17:29:32.934Z,21.23
2018-03-26T17:32:01.188Z,21.20
2018-03-26T17:34:29.421Z,22.83
2018-03-26T17:36:57.684Z,20.00
2018-03-26T17:39:25.917Z,19.67
2018-03-26T17:41:54.165Z,21.27
2018-03-26T17:44:22.405Z,21.93
2018-03-26T17:46:50.670Z,20.57
2018-03-26T17:49:19.674Z,21.13
2018-03-26T17:51:47.925Z,21.47
2018-03-26T17:54:16.173Z,21.50
2018-03-26T17:56:44.425Z,20.80
2018-03-26T17:59:12.656Z,22.67
2018-03-26T18:01:40.968Z,20.57
2018-03-26T18:04:09.197Z,23.10
2018-03-26T18:06:37.458Z,23.37
2018-03-26T18:09:05.702Z,24.80
2018-03-26T18:11:33.957Z,20.70
2018-03-26T18:14:02.198Z,24.67
2018-03-26T18:16:30.450Z,23.63
2018-03-26T18:18:58.690Z,25.90
2018-03-26T18:21:26.939Z,25.73
2018-03-26T18:23:55.943Z,23.43
2018-03-26T18:26:24.191Z,23.70
2018-03-26T18:28:52.442Z,23.87
2018-03-26T18:31:20.733Z,22.43
2018-03-26T18:33:48.945Z,23.10
2018-03-26T18:36:17.185Z,25.80
2018-03-26T18:38:45.433Z,24.97
2018-03-26T18:41:13.683Z,24.77
2018-03-26T18:43:41.937Z,25.57
2018-03-26T18:46:10.943Z,23.67
2018-03-26T18:48:39.216Z,23.73
2018-03-26T18:51:07.467Z,24.47
2018-03-26T18:53:36.488Z,26.67
2018-03-26T18:56:05.317Z,24.20
2018-03-26T18:58:33.567Z,27.40
2018-03-26T19:01:01.809Z,23.60
2018-03-26T19:03:30.826Z,26.40
2018-03-26T19:05:59.073Z,26.90
2018-03-26T19:08:27.328Z,24.77
2018-03-26T19:10:56.338Z,26.10
2018-03-26T19:13:25.354Z,24.90
2018-03-26T19:15:53.593Z,26.80
2018-03-26T19:18:21.848Z,25.10
2018-03-26T19:20:50.089Z,25.57
2018-03-26T19:23:18.346Z,27.60
2018-03-26T19:25:46.590Z,24.60
2018-03-26T19:28:14.842Z,26.63
2018-03-26T19:30:43.081Z,25.33
2018-03-26T19:33:11.344Z,28.03
2018-03-26T19:35:39.592Z,27.63
2018-03-26T19:38:07.905Z,25.37
2018-03-26T19:40:36.161Z,28.10
2018-03-26T19:43:05.170Z,28.20
2018-03-26T19:45:34.186Z,29.40
2018-03-26T19:48:02.434Z,30.97
2018-03-26T19:50:31.454Z,27.50
2018-03-26T19:52:59.689Z,26.93
2018-03-26T19:55:28.713Z,29.20
2018-03-26T19:57:56.959Z,26.80
2018-03-26T20:00:25.212Z,28.13
2018-03-26T20:02:53.453Z,27.20
2018-03-26T20:05:21.705Z,27.80
2018-03-26T20:07:49.950Z,28.03
2018-03-26T20:10:18.209Z,27.60
2018-03-26T20:12:46.463Z,28.03
2018-03-26T20:15:14.709Z,27.90
2018-03-26T20:17:42.951Z,29.37
2018-03-26T20:20:11.210Z,27.50
2018-03-26T20:22:39.455Z,27.40
2018-03-26T20:25:07.709Z,29.50
2018-03-26T20:27:35.954Z,28.70
2018-03-26T20:30:04.213Z,27.90
2018-03-26T20:32:32.461Z,28.20
2018-03-26T20:35:00.710Z,28.47
2018-03-26T20:37:28.961Z,30.60
2018-03-26T20:39:57.969Z,28.67
2018-03-26T20:42:26.231Z,28.50
2018-03-26T20:44:55.234Z,29.00
2018-03-26T20:47:24.253Z,30.13
2018-03-26T20:49:52.504Z,29.80
2018-03-26T20:52:21.525Z,27.90
2018-03-26T20:54:49.769Z,29.50
2018-03-26T20:57:18.790Z,27.40
2018-03-26T20:59:47.036Z,29.30
2018-03-26T21:02:16.054Z,28.27
2018-03-26T21:04:44.294Z,29.47
2018-03-26T21:07:13.314Z,28.83
2018-03-26T21:09:41.560Z,30.17
2018-03-26T21:12:10.582Z,28.03
2018-03-26T21:14:38.826Z,28.23
2018-03-26T21:17:07.083Z,33.23
2018-03-26T21:19:35.336Z,34.20
2018-03-26T21:22:03.577Z,35.17
2018-03-26T21:24:31.856Z,35.73
2018-03-26T21:27:00.867Z,29.97
2018-03-26T21:29:29.111Z,28.50
2018-03-26T21:31:58.122Z,29.10
2018-03-26T21:34:26.384Z,26.87
2018-03-26T21:36:55.389Z,31.23
2018-03-26T21:39:23.641Z,28.20
2018-03-26T21:41:52.659Z,31.47
2018-03-26T21:44:20.921Z,28.63
2018-03-26T21:46:49.926Z,29.47
2018-03-26T21:49:18.170Z,33.20
2018-03-26T21:51:46.413Z,28.00
2018-03-26T21:54:14.663Z,31.43
2018-03-26T21:56:42.911Z,27.90
2018-03-26T21:59:11.923Z,27.07
2018-03-26T22:01:40.161Z,31.40
2018-03-26T22:04:08.424Z,30.67
2018-03-26T22:09:34.515Z,30.20
2018-03-26T22:12:02.759Z,26.57
2018-03-26T22:14:31.002Z,27.43
2018-03-26T22:16:59.256Z,29.23
2018-03-26T22:19:27.504Z,28.73
2018-03-26T22:21:56.510Z,26.80
2018-03-26T22:24:24.775Z,29.40
2018-03-26T22:26:53.783Z,30.43
2018-03-26T22:29:22.109Z,29.60
2018-03-26T22:31:50.314Z,28.47
2018-03-26T22:34:19.336Z,30.63
2018-03-26T22:36:47.582Z,29.33
2018-03-26T22:39:16.598Z,29.97
2018-03-26T22:41:44.842Z,28.17
2018-03-26T22:44:13.861Z,28.13
2018-03-26T22:46:42.102Z,29.13
2018-03-26T22:49:10.358Z,32.17
2018-03-26T22:51:38.603Z,29.77
2018-03-26T22:54:06.850Z,29.80
2018-03-26T22:56:35.873Z,29.10
2018-03-26T22:59:04.117Z,28.17
2018-03-26T23:01:33.127Z,28.77
2018-03-26T23:04:01.370Z,27.83
2018-03-26T23:06:29.614Z,30.50
2018-03-26T23:08:57.855Z,33.13
2018-03-26T23:11:26.102Z,30.30
2018-03-26T23:13:55.117Z,31.50
2018-03-26T23:16:23.378Z,31.00
2018-03-26T23:18:52.385Z,30.67
2018-03-26T23:21:20.645Z,31.47
2018-03-26T23:23:49.652Z,32.60
2018-03-26T23:26:17.899Z,32.53
2018-03-26T23:28:46.138Z,31.70
2018-03-26T23:31:14.392Z,34.80
2018-03-26T23:33:42.630Z,35.00
2018-03-26T23:36:11.651Z,34.23
2018-03-26T23:38:39.881Z,31.30
2018-03-26T23:41:08.147Z,32.63
2018-03-26T23:43:36.389Z,29.70
2018-03-26T23:46:04.922Z,31.03
2018-03-26T23:48:33.182Z,29.50
2018-03-26T23:51:01.434Z,34.90
2018-03-26T23:53:29.678Z,32.17
2018-03-26T23:55:57.926Z,30.77
2018-03-26T23:58:26.835Z,34.10
